sensor_id;sensor_type;location;lat;lon;timestamp;pressure;altitude;pressure_sealevel;temperature;humidity
48041;BME280;33815;48.386;11.738;2023-04-06T00:00:59;96801.22;;;-4.61;100.00
48041;BME280;33815;48.386;11.738;2023-04-06T00:03:24;96749.78;;;-4.95;100.00
48041;BME280;33815;48.386;11.738;2023-04-06T00:05:49;96800.38;;;-4.62;100.00
48041;BME280;33815;48.386;11.738;2023-04-06T00:08:15;96784.06;;;-4.56;100.00
48041;BME280;33815;48.386;11.738;2023-04-06T00:10:40;96792.31;;;-4.50;100.00
48041;BME280;33815;48.386;11.738;2023-04-06T00:13:06;96800.19;;;-4.56;100.00
48041;BME280;33815;48.386;11.738;2023-04-06T00:15:32;96791.91;;;-4.62;100.00
48041;BME280;33815;48.386;11.738;2023-04-06T00:17:58;96782.09;;;-4.73;100.00
48041;BME280;33815;48.386;11.738;2023-04-06T00:20:23;96793.09;;;-4.73;100.00
48041;BME280;33815;48.386;11.738;2023-04-06T00:22:49;96793.31;;;-4.79;100.00
48041;BME280;33815;48.386;11.738;2023-04-06T00:25:14;96796.66;;;-4.78;100.00
48041;BME280;33815;48.386;11.738;2023-04-06T00:27:40;96791.75;;;-4.83;100.00
48041;BME280;33815;48.386;11.738;2023-04-06T00:30:07;96800.25;;;-4.84;100.00
48041;BME280;33815;48.386;11.738;2023-04-06T00:32:32;96793.56;;;-4.87;100.00
48041;BME280;33815;48.386;11.738;2023-04-06T00:34:58;96801.16;;;-4.85;100.00
48041;BME280;33815;48.386;11.738;2023-04-06T00:37:23;96771.31;;;-5.07;100.00
48041;BME280;33815;48.386;11.738;2023-04-06T00:39:49;96797.84;;;-4.89;100.00
48041;BME280;33815;48.386;11.738;2023-04-06T00:42:16;96806.41;;;-4.91;100.00
48041;BME280;33815;48.386;11.738;2023-04-06T00:44:43;96802.00;;;-4.86;100.00
48041;BME280;33815;48.386;11.738;2023-04-06T00:47:09;96794.28;;;-4.83;100.00
48041;BME280;33815;48.386;11.738;2023-04-06T00:49:35;96796.81;;;-4.83;100.00
48041;BME280;33815;48.386;11.738;2023-04-06T00:52:01;96794.91;;;-4.76;100.00
48041;BME280;33815;48.386;11.738;2023-04-06T00:54:27;96794.13;;;-4.78;100.00
48041;BME280;33815;48.386;11.738;2023-04-06T00:56:52;96760.22;;;-5.04;100.00
48041;BME280;33815;48.386;11.738;2023-04-06T00:59:18;96791.94;;;-4.89;100.00
48041;BME280;33815;48.386;11.738;2023-04-06T01:01:43;96795.38;;;-4.90;100.00
48041;BME280;33815;48.386;11.738;2023-04-06T01:04:08;96799.75;;;-4.95;100.00
48041;BME280;33815;48.386;11.738;2023-04-06T01:06:34;96794.09;;;-5.04;100.00
48041;BME280;33815;48.386;11.738;2023-04-06T01:08:59;96793.56;;;-5.13;100.00
48041;BME280;33815;48.386;11.738;2023-04-06T01:11:24;96791.06;;;-5.15;100.00
48041;BME280;33815;48.386;11.738;2023-04-06T01:13:51;96796.25;;;-5.18;100.00
48041;BME280;33815;48.386;11.738;2023-04-06T01:16:16;96781.38;;;-5.30;100.00
48041;BME280;33815;48.386;11.738;2023-04-06T01:18:41;96759.78;;;-5.44;100.00
48041;BME280;33815;48.386;11.738;2023-04-06T01:21:08;96795.47;;;-5.20;100.00
48041;BME280;33815;48.386;11.738;2023-04-06T01:23:34;96787.16;;;-5.25;100.00
48041;BME280;33815;48.386;11.738;2023-04-06T01:25:59;96791.28;;;-5.21;100.00
48041;BME280;33815;48.386;11.738;2023-04-06T01:28:25;96788.88;;;-5.26;100.00
48041;BME280;33815;48.386;11.738;2023-04-06T01:30:50;96788.88;;;-5.26;100.00
48041;BME280;33815;48.386;11.738;2023-04-06T01:33:16;96791.41;;;-5.26;100.00
48041;BME280;33815;48.386;11.738;2023-04-06T01:35:41;96773.75;;;-5.30;100.00
48041;BME280;33815;48.386;11.738;2023-04-06T01:38:06;96784.72;;;-5.28;100.00
48041;BME280;33815;48.386;11.738;2023-04-06T01:40:31;96781.47;;;-5.34;100.00
48041;BME280;33815;48.386;11.738;2023-04-06T01:42:57;96773.22;;;-5.40;100.00
48041;BME280;33815;48.386;11.738;2023-04-06T01:45:22;96779.16;;;-5.40;100.00
48041;BME280;33815;48.386;11.738;2023-04-06T01:47:47;96784.28;;;-5.43;100.00
48041;BME280;33815;48.386;11.738;2023-04-06T01:50:12;96778.41;;;-5.43;100.00
48041;BME280;33815;48.386;11.738;2023-04-06T01:52:38;96772.41;;;-5.41;100.00
48041;BME280;33815;48.386;11.738;2023-04-06T01:55:03;96768.97;;;-5.40;100.00
48041;BME280;33815;48.386;11.738;2023-04-06T01:57:29;96738.38;;;-5.63;100.00
48041;BME280;33815;48.386;11.738;2023-04-06T01:59:54;96775.84;;;-5.43;100.00
48041;BME280;33815;48.386;11.738;2023-04-06T02:02:19;96740.97;;;-5.65;100.00
48041;BME280;33815;48.386;11.738;2023-04-06T02:04:45;96739.91;;;-5.58;100.00
48041;BME280;33815;48.386;11.738;2023-04-06T02:07:10;96771.59;;;-5.43;100.00
48041;BME280;33815;48.386;11.738;2023-04-06T02:09:36;96769.09;;;-5.44;100.00
48041;BME280;33815;48.386;11.738;2023-04-06T02:12:01;96768.44;;;-5.49;100.00
48041;BME280;33815;48.386;11.738;2023-04-06T02:14:27;96763.47;;;-5.54;100.00
48041;BME280;33815;48.386;11.738;2023-04-06T02:16:52;96773.72;;;-5.57;100.00
48041;BME280;33815;48.386;11.738;2023-04-06T02:19:18;96768.00;;;-5.64;100.00
48041;BME280;33815;48.386;11.738;2023-04-06T02:21:43;96770.53;;;-5.64;100.00
48041;BME280;33815;48.386;11.738;2023-04-06T02:24:08;96773.19;;;-5.67;100.00
48041;BME280;33815;48.386;11.738;2023-04-06T02:26:33;96774.03;;;-5.66;100.00
48041;BME280;33815;48.386;11.738;2023-04-06T02:28:59;96768.09;;;-5.67;100.00
48041;BME280;33815;48.386;11.738;2023-04-06T02:31:24;96745.75;;;-5.84;100.00
48041;BME280;33815;48.386;11.738;2023-04-06T02:33:50;96762.34;;;-5.72;100.00
48041;BME280;33815;48.386;11.738;2023-04-06T02:36:15;96769.06;;;-5.71;100.00
48041;BME280;33815;48.386;11.738;2023-04-06T02:38:40;96769.13;;;-5.73;100.00
48041;BME280;33815;48.386;11.738;2023-04-06T02:41:06;96770.09;;;-5.77;100.00
48041;BME280;33815;48.386;11.738;2023-04-06T02:43:31;96768.47;;;-5.79;100.00
48041;BME280;33815;48.386;11.738;2023-04-06T02:45:56;96765.06;;;-5.78;100.00
48041;BME280;33815;48.386;11.738;2023-04-06T02:48:21;96765.63;;;-5.69;100.00
48041;BME280;33815;48.386;11.738;2023-04-06T02:50:47;96766.22;;;-5.60;100.00
48041;BME280;33815;48.386;11.738;2023-04-06T02:53:12;96761.91;;;-5.58;100.00
48041;BME280;33815;48.386;11.738;2023-04-06T02:55:37;96746.47;;;-5.79;100.00
48041;BME280;33815;48.386;11.738;2023-04-06T02:58:02;96767.38;;;-5.71;100.00
48041;BME280;33815;48.386;11.738;2023-04-06T03:00:28;96770.94;;;-5.76;100.00
48041;BME280;33815;48.386;11.738;2023-04-06T03:02:53;96767.75;;;-5.83;100.00
48041;BME280;33815;48.386;11.738;2023-04-06T03:05:18;96759.25;;;-5.82;100.00
48041;BME280;33815;48.386;11.738;2023-04-06T03:07:43;96761.91;;;-5.87;100.00
48041;BME280;33815;48.386;11.738;2023-04-06T03:10:09;96763.84;;;-5.95;100.00
48041;BME280;33815;48.386;11.738;2023-04-06T03:12:35;96722.31;;;-6.21;100.00
48041;BME280;33815;48.386;11.738;2023-04-06T03:15:00;96764.06;;;-6.01;100.00
48041;BME280;33815;48.386;11.738;2023-04-06T03:17:25;96762.44;;;-6.04;100.00
48041;BME280;33815;48.386;11.738;2023-04-06T03:19:50;96757.50;;;-6.08;100.00
48041;BME280;33815;48.386;11.738;2023-04-06T03:22:16;96770.22;;;-6.10;100.00
48041;BME280;33815;48.386;11.738;2023-04-06T03:24:41;96756.00;;;-6.15;100.00
48041;BME280;33815;48.386;11.738;2023-04-06T03:27:06;96764.34;;;-6.12;100.00
48041;BME280;33815;48.386;11.738;2023-04-06T03:29:31;96761.34;;;-5.96;100.00
48041;BME280;33815;48.386;11.738;2023-04-06T03:31:57;96751.84;;;-5.90;100.00
48041;BME280;33815;48.386;11.738;2023-04-06T03:34:22;96759.41;;;-5.88;100.00
48041;BME280;33815;48.386;11.738;2023-04-06T03:36:47;96764.72;;;-5.96;100.00
48041;BME280;33815;48.386;11.738;2023-04-06T03:39:12;96762.44;;;-6.04;100.00
48041;BME280;33815;48.386;11.738;2023-04-06T03:41:38;96777.03;;;-6.12;100.00
48041;BME280;33815;48.386;11.738;2023-04-06T03:44:03;96768.75;;;-6.17;100.00
48041;BME280;33815;48.386;11.738;2023-04-06T03:46:28;96777.38;;;-6.23;100.00
48041;BME280;33815;48.386;11.738;2023-04-06T03:48:54;96779.06;;;-6.23;100.00
48041;BME280;33815;48.386;11.738;2023-04-06T03:51:19;96774.06;;;-6.26;100.00
48041;BME280;33815;48.386;11.738;2023-04-06T03:53:44;96785.09;;;-6.27;100.00
48041;BME280;33815;48.386;11.738;2023-04-06T03:56:10;96790.19;;;-6.29;100.00
48041;BME280;33815;48.386;11.738;2023-04-06T03:58:35;96791.06;;;-6.30;100.00
48041;BME280;33815;48.386;11.738;2023-04-06T04:01:00;96790.28;;;-6.32;100.00
48041;BME280;33815;48.386;11.738;2023-04-06T04:03:26;96791.09;;;-6.31;100.00
48041;BME280;33815;48.386;11.738;2023-04-06T04:05:53;96787.78;;;-6.33;100.00
48041;BME280;33815;48.386;11.738;2023-04-06T04:08:18;96789.47;;;-6.34;100.00
48041;BME280;33815;48.386;11.738;2023-04-06T04:10:43;96788.63;;;-6.33;100.00
48041;BME280;33815;48.386;11.738;2023-04-06T04:13:09;96784.44;;;-6.35;100.00
48041;BME280;33815;48.386;11.738;2023-04-06T04:15:34;96760.53;;;-6.58;100.00
48041;BME280;33815;48.386;11.738;2023-04-06T04:17:59;96796.44;;;-6.41;100.00
48041;BME280;33815;48.386;11.738;2023-04-06T04:20:25;96798.09;;;-6.40;100.00
48041;BME280;33815;48.386;11.738;2023-04-06T04:22:50;96788.94;;;-6.44;100.00
48041;BME280;33815;48.386;11.738;2023-04-06T04:25:15;96801.47;;;-6.39;100.00
48041;BME280;33815;48.386;11.738;2023-04-06T04:27:41;96796.50;;;-6.42;100.00
48041;BME280;33815;48.386;11.738;2023-04-06T04:30:06;96789.94;;;-6.51;100.00
48041;BME280;33815;48.386;11.738;2023-04-06T04:32:32;96793.28;;;-6.49;100.00
48041;BME280;33815;48.386;11.738;2023-04-06T04:34:57;96808.31;;;-6.43;100.00
48041;BME280;33815;48.386;11.738;2023-04-06T04:37:22;96805.78;;;-6.43;100.00
48041;BME280;33815;48.386;11.738;2023-04-06T04:39:47;96802.50;;;-6.46;100.00
48041;BME280;33815;48.386;11.738;2023-04-06T04:42:13;96811.72;;;-6.42;100.00
48041;BME280;33815;48.386;11.738;2023-04-06T04:44:38;96757.44;;;-6.68;100.00
48041;BME280;33815;48.386;11.738;2023-04-06T04:47:04;96812.31;;;-6.34;100.00
48041;BME280;33815;48.386;11.738;2023-04-06T04:49:29;96815.75;;;-6.35;100.00
48041;BME280;33815;48.386;11.738;2023-04-06T04:51:54;96805.59;;;-6.35;100.00
48041;BME280;33815;48.386;11.738;2023-04-06T04:54:20;96795.59;;;-6.41;100.00
48041;BME280;33815;48.386;11.738;2023-04-06T04:56:45;96821.53;;;-6.31;100.00
48041;BME280;33815;48.386;11.738;2023-04-06T04:59:10;96808.81;;;-6.30;100.00
48041;BME280;33815;48.386;11.738;2023-04-06T05:01:36;96811.16;;;-6.22;100.00
48041;BME280;33815;48.386;11.738;2023-04-06T05:04:01;96812.66;;;-6.15;100.00
48041;BME280;33815;48.386;11.738;2023-04-06T05:06:26;96799.34;;;-6.23;100.00
48041;BME280;33815;48.386;11.738;2023-04-06T05:08:52;96807.44;;;-6.10;100.00
48041;BME280;33815;48.386;11.738;2023-04-06T05:11:17;96810.84;;;-6.10;100.00
48041;BME280;33815;48.386;11.738;2023-04-06T05:13:42;96770.88;;;-6.33;100.00
48041;BME280;33815;48.386;11.738;2023-04-06T05:16:07;96803.78;;;-6.00;100.00
48041;BME280;33815;48.386;11.738;2023-04-06T05:18:33;96801.09;;;-5.95;100.00
48041;BME280;33815;48.386;11.738;2023-04-06T05:20:58;96807.66;;;-5.88;100.00
48041;BME280;33815;48.386;11.738;2023-04-06T05:23:23;96815.91;;;-5.81;100.00
48041;BME280;33815;48.386;11.738;2023-04-06T05:25:49;96799.06;;;-5.84;100.00
48041;BME280;33815;48.386;11.738;2023-04-06T05:28:14;96809.69;;;-5.71;100.00
48041;BME280;33815;48.386;11.738;2023-04-06T05:30:42;96801.97;;;-5.68;100.00
48041;BME280;33815;48.386;11.738;2023-04-06T05:33:07;96801.81;;;-5.62;100.00
48041;BME280;33815;48.386;11.738;2023-04-06T05:35:32;96798.47;;;-5.62;100.00
48041;BME280;33815;48.386;11.738;2023-04-06T05:37:58;96814.94;;;-5.47;100.00
48041;BME280;33815;48.386;11.738;2023-04-06T05:40:23;96807.13;;;-5.41;100.00
48041;BME280;33815;48.386;11.738;2023-04-06T05:42:48;96817.69;;;-5.27;100.00
48041;BME280;33815;48.386;11.738;2023-04-06T05:45:15;96807.34;;;-5.21;100.00
48041;BME280;33815;48.386;11.738;2023-04-06T05:47:44;96807.94;;;-5.12;100.00
48041;BME280;33815;48.386;11.738;2023-04-06T05:50:14;96821.06;;;-5.00;100.00
48041;BME280;33815;48.386;11.738;2023-04-06T05:52:40;96813.00;;;-4.86;100.00
48041;BME280;33815;48.386;11.738;2023-04-06T05:55:08;96815.94;;;-4.71;100.00
48041;BME280;33815;48.386;11.738;2023-04-06T05:57:34;96821.25;;;-4.52;100.00
48041;BME280;33815;48.386;11.738;2023-04-06T05:59:59;96814.28;;;-4.47;100.00
48041;BME280;33815;48.386;11.738;2023-04-06T06:02:24;96786.03;;;-4.65;100.00
48041;BME280;33815;48.386;11.738;2023-04-06T06:04:50;96818.13;;;-4.35;100.00
48041;BME280;33815;48.386;11.738;2023-04-06T06:07:16;96787.91;;;-4.44;100.00
48041;BME280;33815;48.386;11.738;2023-04-06T06:09:41;96786.53;;;-4.30;100.00
48041;BME280;33815;48.386;11.738;2023-04-06T06:12:07;96816.84;;;-3.98;100.00
48041;BME280;33815;48.386;11.738;2023-04-06T06:14:32;96794.88;;;-4.01;100.00
48041;BME280;33815;48.386;11.738;2023-04-06T06:16:57;96814.28;;;-3.74;100.00
48041;BME280;33815;48.386;11.738;2023-04-06T06:19:23;96813.59;;;-3.56;100.00
48041;BME280;33815;48.386;11.738;2023-04-06T06:21:48;96816.75;;;-3.49;100.00
48041;BME280;33815;48.386;11.738;2023-04-06T06:24:13;96808.88;;;-3.43;100.00
48041;BME280;33815;48.386;11.738;2023-04-06T06:26:38;96815.84;;;-3.26;100.00
48041;BME280;33815;48.386;11.738;2023-04-06T06:29:04;96821.41;;;-2.94;100.00
48041;BME280;33815;48.386;11.738;2023-04-06T06:31:30;96814.22;;;-2.84;100.00
48041;BME280;33815;48.386;11.738;2023-04-06T06:33:56;96819.78;;;-2.74;100.00
48041;BME280;33815;48.386;11.738;2023-04-06T06:36:21;96808.50;;;-2.69;100.00
48041;BME280;33815;48.386;11.738;2023-04-06T06:38:46;96818.53;;;-2.44;100.00
48041;BME280;33815;48.386;11.738;2023-04-06T06:41:12;96820.38;;;-2.27;100.00
48041;BME280;33815;48.386;11.738;2023-04-06T06:43:37;96818.06;;;-1.74;100.00
48041;BME280;33815;48.386;11.738;2023-04-06T06:46:03;96821.75;;;-1.61;100.00
48041;BME280;33815;48.386;11.738;2023-04-06T06:48:28;96819.06;;;-1.58;100.00
48041;BME280;33815;48.386;11.738;2023-04-06T06:50:54;96816.50;;;-1.58;100.00
48041;BME280;33815;48.386;11.738;2023-04-06T06:53:20;96829.16;;;-1.18;100.00
48041;BME280;33815;48.386;11.738;2023-04-06T06:55:45;96790.06;;;-1.20;100.00
48041;BME280;33815;48.386;11.738;2023-04-06T06:58:11;96788.28;;;-1.00;100.00
48041;BME280;33815;48.386;11.738;2023-04-06T07:00:36;96827.22;;;-0.76;100.00
48041;BME280;33815;48.386;11.738;2023-04-06T07:03:01;96829.31;;;-0.49;100.00
48041;BME280;33815;48.386;11.738;2023-04-06T07:05:27;96829.03;;;-0.43;99.14
48041;BME280;33815;48.386;11.738;2023-04-06T07:07:52;96837.84;;;-0.14;97.80
48041;BME280;33815;48.386;11.738;2023-04-06T07:10:17;96804.31;;;-0.44;99.03
48041;BME280;33815;48.386;11.738;2023-04-06T07:12:42;96827.78;;;-0.19;100.00
48041;BME280;33815;48.386;11.738;2023-04-06T07:15:08;96834.19;;;0.24;97.89
48041;BME280;33815;48.386;11.738;2023-04-06T07:17:33;96816.16;;;0.25;97.79
48041;BME280;33815;48.386;11.738;2023-04-06T07:19:59;96825.03;;;0.51;93.72
48041;BME280;33815;48.386;11.738;2023-04-06T07:22:24;96818.75;;;0.73;95.16
48041;BME280;33815;48.386;11.738;2023-04-06T07:24:49;96811.63;;;0.62;92.84
48041;BME280;33815;48.386;11.738;2023-04-06T07:27:15;96824.94;;;1.01;93.44
48041;BME280;33815;48.386;11.738;2023-04-06T07:29:41;96815.91;;;1.10;93.86
48041;BME280;33815;48.386;11.738;2023-04-06T07:32:06;96821.09;;;1.54;92.21
48041;BME280;33815;48.386;11.738;2023-04-06T07:34:32;96794.22;;;1.89;88.42
48041;BME280;33815;48.386;11.738;2023-04-06T07:36:57;96794.13;;;2.34;85.12
48041;BME280;33815;48.386;11.738;2023-04-06T07:39:22;96822.22;;;3.73;78.27
48041;BME280;33815;48.386;11.738;2023-04-06T07:41:48;96810.53;;;4.45;76.01
48041;BME280;33815;48.386;11.738;2023-04-06T07:44:13;96817.50;;;5.17;74.28
48041;BME280;33815;48.386;11.738;2023-04-06T07:46:38;96805.38;;;5.77;69.83
48041;BME280;33815;48.386;11.738;2023-04-06T07:49:04;96811.34;;;5.78;69.10
48041;BME280;33815;48.386;11.738;2023-04-06T07:51:29;96805.69;;;5.61;68.03
48041;BME280;33815;48.386;11.738;2023-04-06T07:53:55;96801.53;;;5.47;65.71
48041;BME280;33815;48.386;11.738;2023-04-06T07:56:21;96801.00;;;5.31;65.97
48041;BME280;33815;48.386;11.738;2023-04-06T07:58:46;96809.50;;;5.33;65.56
48041;BME280;33815;48.386;11.738;2023-04-06T08:01:12;96775.50;;;5.26;67.98
48041;BME280;33815;48.386;11.738;2023-04-06T08:03:37;96802.34;;;5.48;69.07
48041;BME280;33815;48.386;11.738;2023-04-06T08:06:03;96805.09;;;5.22;67.66
48041;BME280;33815;48.386;11.738;2023-04-06T08:08:29;96800.66;;;5.36;64.78
48041;BME280;33815;48.386;11.738;2023-04-06T08:10:54;96799.41;;;5.17;64.53
48041;BME280;33815;48.386;11.738;2023-04-06T08:13:20;96810.38;;;5.21;67.55
48041;BME280;33815;48.386;11.738;2023-04-06T08:15:45;96795.38;;;5.37;63.31
48041;BME280;33815;48.386;11.738;2023-04-06T08:18:10;96800.19;;;5.30;64.13
48041;BME280;33815;48.386;11.738;2023-04-06T08:20:36;96766.53;;;5.08;64.56
48041;BME280;33815;48.386;11.738;2023-04-06T08:23:01;96797.06;;;5.49;61.65
48041;BME280;33815;48.386;11.738;2023-04-06T08:25:26;96799.66;;;5.49;63.96
48041;BME280;33815;48.386;11.738;2023-04-06T08:27:52;96782.81;;;5.91;61.67
48041;BME280;33815;48.386;11.738;2023-04-06T08:30:17;96776.75;;;6.14;58.53
48041;BME280;33815;48.386;11.738;2023-04-06T08:32:44;96788.84;;;6.25;57.59
48041;BME280;33815;48.386;11.738;2023-04-06T08:35:10;96793.09;;;6.26;56.52
48041;BME280;33815;48.386;11.738;2023-04-06T08:37:35;96787.22;;;6.47;55.74
48041;BME280;33815;48.386;11.738;2023-04-06T08:40:00;96793.88;;;6.72;55.55
48041;BME280;33815;48.386;11.738;2023-04-06T08:42:28;96792.81;;;6.63;54.52
48041;BME280;33815;48.386;11.738;2023-04-06T08:44:56;96779.25;;;6.82;51.49
48041;BME280;33815;48.386;11.738;2023-04-06T08:47:22;96744.09;;;6.57;51.38
48041;BME280;33815;48.386;11.738;2023-04-06T08:49:48;96783.66;;;7.03;52.02
48041;BME280;33815;48.386;11.738;2023-04-06T08:52:15;96792.56;;;7.22;53.24
48041;BME280;33815;48.386;11.738;2023-04-06T08:54:42;96785.84;;;7.19;50.87
48041;BME280;33815;48.386;11.738;2023-04-06T08:57:08;96750.16;;;7.44;49.87
48041;BME280;33815;48.386;11.738;2023-04-06T08:59:34;96778.72;;;7.96;51.51
48041;BME280;33815;48.386;11.738;2023-04-06T09:02:03;96768.78;;;7.59;46.97
48041;BME280;33815;48.386;11.738;2023-04-06T09:04:28;96765.75;;;7.75;48.03
48041;BME280;33815;48.386;11.738;2023-04-06T09:06:53;96768.00;;;7.89;48.26
48041;BME280;33815;48.386;11.738;2023-04-06T09:09:19;96770.22;;;8.24;48.16
48041;BME280;33815;48.386;11.738;2023-04-06T09:11:47;96757.59;;;8.10;47.16
48041;BME280;33815;48.386;11.738;2023-04-06T09:14:12;96756.72;;;8.31;45.31
48041;BME280;33815;48.386;11.738;2023-04-06T09:16:39;96733.38;;;8.40;47.51
48041;BME280;33815;48.386;11.738;2023-04-06T09:19:05;96759.88;;;8.85;47.04
48041;BME280;33815;48.386;11.738;2023-04-06T09:21:30;96737.72;;;9.10;44.35
48041;BME280;33815;48.386;11.738;2023-04-06T09:24:00;96751.41;;;9.32;46.34
48041;BME280;33815;48.386;11.738;2023-04-06T09:26:26;96746.34;;;9.50;46.24
48041;BME280;33815;48.386;11.738;2023-04-06T09:28:57;96698.66;;;9.49;43.79
48041;BME280;33815;48.386;11.738;2023-04-06T09:31:24;96704.13;;;9.56;41.69
48041;BME280;33815;48.386;11.738;2023-04-06T09:33:50;96720.56;;;9.56;40.30
48041;BME280;33815;48.386;11.738;2023-04-06T09:36:15;96731.16;;;9.25;41.78
48041;BME280;33815;48.386;11.738;2023-04-06T09:39:03;96739.91;;;9.54;42.82
48041;BME280;33815;48.386;11.738;2023-04-06T09:41:33;96736.59;;;9.62;42.88
48041;BME280;33815;48.386;11.738;2023-04-06T09:44:10;96700.34;;;9.40;42.03
48041;BME280;33815;48.386;11.738;2023-04-06T09:46:41;96737.16;;;9.93;43.08
48041;BME280;33815;48.386;11.738;2023-04-06T09:49:08;96711.91;;;9.75;38.09
48041;BME280;33815;48.386;11.738;2023-04-06T09:51:39;96728.50;;;9.55;40.13
48041;BME280;33815;48.386;11.738;2023-04-06T09:54:06;96715.59;;;10.10;43.91
48041;BME280;33815;48.386;11.738;2023-04-06T09:59:12;96712.25;;;10.18;36.52
48041;BME280;33815;48.386;11.738;2023-04-06T10:01:39;96705.69;;;9.86;37.83
48041;BME280;33815;48.386;11.738;2023-04-06T10:04:50;96701.22;;;10.06;37.90
48041;BME280;33815;48.386;11.738;2023-04-06T10:06:52;96714.22;;;10.16;39.92
48041;BME280;33815;48.386;11.738;2023-04-06T10:09:20;96716.88;;;10.80;40.54
48041;BME280;33815;48.386;11.738;2023-04-06T10:11:48;96708.09;;;10.99;37.70
48041;BME280;33815;48.386;11.738;2023-04-06T10:14:15;96696.84;;;10.99;36.77
48041;BME280;33815;48.386;11.738;2023-04-06T10:16:40;96674.03;;;10.65;37.46
48041;BME280;33815;48.386;11.738;2023-04-06T10:19:10;96708.84;;;10.73;39.58
48041;BME280;33815;48.386;11.738;2023-04-06T10:21:39;96695.50;;;11.12;37.67
48041;BME280;33815;48.386;11.738;2023-04-06T10:24:08;96693.31;;;11.08;36.13
48041;BME280;33815;48.386;11.738;2023-04-06T10:26:38;96690.03;;;11.42;38.02
48041;BME280;33815;48.386;11.738;2023-04-06T10:29:04;96681.09;;;11.79;37.73
48041;BME280;33815;48.386;11.738;2023-04-06T10:31:29;96661.53;;;11.57;35.48
48041;BME280;33815;48.386;11.738;2023-04-06T10:34:00;96669.31;;;11.75;34.88
48041;BME280;33815;48.386;11.738;2023-04-06T10:36:33;96670.47;;;12.07;37.85
48041;BME280;33815;48.386;11.738;2023-04-06T10:39:00;96666.72;;;12.68;35.66
48041;BME280;33815;48.386;11.738;2023-04-06T10:41:42;96671.91;;;12.52;35.11
48041;BME280;33815;48.386;11.738;2023-04-06T10:44:17;96658.03;;;12.43;36.39
48041;BME280;33815;48.386;11.738;2023-04-06T10:46:52;96669.13;;;11.94;35.87
48041;BME280;33815;48.386;11.738;2023-04-06T10:49:17;96668.78;;;12.32;37.32
48041;BME280;33815;48.386;11.738;2023-04-06T10:51:43;96651.31;;;12.41;36.65
48041;BME280;33815;48.386;11.738;2023-04-06T10:54:09;96662.66;;;12.82;35.85
48041;BME280;33815;48.386;11.738;2023-04-06T10:56:37;96633.06;;;13.07;36.32
48041;BME280;33815;48.386;11.738;2023-04-06T10:59:03;96652.34;;;12.97;35.40
48041;BME280;33815;48.386;11.738;2023-04-06T11:01:29;96662.00;;;13.05;37.58
48041;BME280;33815;48.386;11.738;2023-04-06T11:03:56;96650.22;;;13.34;34.73
48041;BME280;33815;48.386;11.738;2023-04-06T11:06:25;96595.63;;;12.73;32.84
48041;BME280;33815;48.386;11.738;2023-04-06T11:08:52;96636.00;;;12.71;33.79
48041;BME280;33815;48.386;11.738;2023-04-06T11:11:19;96604.59;;;12.46;33.70
48041;BME280;33815;48.386;11.738;2023-04-06T11:13:50;96634.84;;;12.65;33.00
48041;BME280;33815;48.386;11.738;2023-04-06T11:16:24;96613.59;;;12.84;34.39
48041;BME280;33815;48.386;11.738;2023-04-06T11:19:01;96628.34;;;13.10;35.29
48041;BME280;33815;48.386;11.738;2023-04-06T11:21:50;96636.56;;;12.23;33.83
48041;BME280;33815;48.386;11.738;2023-04-06T11:26:43;96630.94;;;12.53;34.27
48041;BME280;33815;48.386;11.738;2023-04-06T11:29:09;96623.06;;;13.27;35.07
48041;BME280;33815;48.386;11.738;2023-04-06T11:31:43;96621.63;;;12.91;33.88
48041;BME280;33815;48.386;11.738;2023-04-06T11:34:16;96631.22;;;12.33;32.61
48041;BME280;33815;48.386;11.738;2023-04-06T11:36:42;96623.03;;;12.28;33.64
48041;BME280;33815;48.386;11.738;2023-04-06T11:39:08;96624.84;;;11.93;33.88
48041;BME280;33815;48.386;11.738;2023-04-06T11:41:34;96634.34;;;11.94;35.51
48041;BME280;33815;48.386;11.738;2023-04-06T11:44:02;96623.34;;;11.56;34.03
48041;BME280;33815;48.386;11.738;2023-04-06T11:46:28;96593.75;;;11.73;34.17
48041;BME280;33815;48.386;11.738;2023-04-06T11:48:58;96620.25;;;12.29;33.14
48041;BME280;33815;48.386;11.738;2023-04-06T11:51:23;96620.75;;;12.25;32.55
48041;BME280;33815;48.386;11.738;2023-04-06T11:53:48;96623.41;;;12.74;36.90
48041;BME280;33815;48.386;11.738;2023-04-06T11:56:30;96619.31;;;12.72;32.01
48041;BME280;33815;48.386;11.738;2023-04-06T11:58:57;96605.91;;;13.16;32.35
48041;BME280;33815;48.386;11.738;2023-04-06T12:01:24;96607.91;;;12.89;31.70
48041;BME280;33815;48.386;11.738;2023-04-06T12:03:51;96621.78;;;12.73;35.14
48041;BME280;33815;48.386;11.738;2023-04-06T12:06:17;96615.53;;;13.32;34.90
48041;BME280;33815;48.386;11.738;2023-04-06T12:08:42;96592.88;;;13.72;31.32
48041;BME280;33815;48.386;11.738;2023-04-06T12:11:08;96600.47;;;14.30;33.15
48041;BME280;33815;48.386;11.738;2023-04-06T12:13:33;96584.31;;;14.41;31.35
48041;BME280;33815;48.386;11.738;2023-04-06T12:15:58;96590.69;;;14.93;30.79
48041;BME280;33815;48.386;11.738;2023-04-06T12:18:23;96584.53;;;15.01;29.76
48041;BME280;33815;48.386;11.738;2023-04-06T12:20:49;96583.53;;;14.64;29.55
48041;BME280;33815;48.386;11.738;2023-04-06T12:23:14;96585.72;;;14.29;29.91
48041;BME280;33815;48.386;11.738;2023-04-06T12:25:42;96588.06;;;14.47;31.21
48041;BME280;33815;48.386;11.738;2023-04-06T12:28:07;96589.09;;;15.07;32.83
48041;BME280;33815;48.386;11.738;2023-04-06T12:30:35;96584.03;;;14.59;31.27
48041;BME280;33815;48.386;11.738;2023-04-06T12:33:00;96557.63;;;14.61;30.55
48041;BME280;33815;48.386;11.738;2023-04-06T12:35:26;96576.47;;;14.10;31.28
48041;BME280;33815;48.386;11.738;2023-04-06T12:37:51;96571.75;;;14.36;28.92
48041;BME280;33815;48.386;11.738;2023-04-06T12:40:17;96570.47;;;14.32;31.17
48041;BME280;33815;48.386;11.738;2023-04-06T12:42:42;96573.91;;;15.32;32.61
48041;BME280;33815;48.386;11.738;2023-04-06T12:45:08;96551.78;;;15.12;28.48